Time;durP1;ratioP1;P1;durP2;ratioP2;P2;SDS_P1;SDS_P2;PMS_P1;PMS_P2;Temp;Humidity;BMP_temperature;BMP_pressure;BME280_temperature;BME280_humidity;BME280_pressure;Samples;Min_cycle;Max_cycle;Signal;HPM_P1;HPM_P2
2023/12/08 00:02:12;;;;;;;16.35;9.43;;;;;;;3.67;80.03;98660.44;5016482;28;20070;-71
2023/12/08 00:04:37;;;;;;;14.38;9.10;;;;;;;3.73;80.55;98674.63;5022463;28;20288;-71
2023/12/08 00:07:02;;;;;;;13.95;8.63;;;;;;;3.75;79.96;98670.19;5032726;28;20046;-71
2023/12/08 00:09:31;;;;;;;16.13;8.75;;;;;;;3.54;80.18;98637.25;5026785;28;20124;-71
2023/12/08 00:11:57;;;;;;;14.55;8.50;;;;;;;3.71;79.21;98674.72;5029729;28;20041;-71
2023/12/08 00:14:23;;;;;;;14.60;9.05;;;;;;;3.58;78.79;98627.59;5022332;28;20021;-71
2023/12/08 00:16:48;;;;;;;16.02;8.93;;;;;;;3.71;78.94;98669.56;5032175;28;20040;-71
2023/12/08 00:19:18;;;;;;;17.13;9.88;;;;;;;3.78;78.67;98673.41;5028953;28;20051;-71
2023/12/08 00:21:46;;;;;;;13.30;8.75;;;;;;;3.68;78.92;98664.63;5034688;28;20130;-72
2023/12/08 00:24:11;;;;;;;14.20;8.82;;;;;;;3.74;80.31;98663.41;5018036;28;20029;-71
2023/12/08 00:26:37;;;;;;;15.85;9.07;;;;;;;3.79;79.95;98654.44;5028005;28;20144;-71
2023/12/08 00:29:04;;;;;;;15.00;9.05;;;;;;;3.86;80.01;98654.88;5025369;28;20029;-71
2023/12/08 00:31:29;;;;;;;15.27;9.02;;;;;;;3.80;79.68;98650.16;5029157;28;20024;-71
2023/12/08 00:33:57;;;;;;;15.90;8.65;;;;;;;3.84;79.53;98636.16;5032964;28;20442;-71
2023/12/08 00:36:23;;;;;;;14.35;9.10;;;;;;;3.92;78.83;98644.19;5024582;28;20025;-71
2023/12/08 00:38:51;;;;;;;14.80;8.60;;;;;;;3.91;79.79;98641.72;5012745;28;20040;-71
2023/12/08 00:41:18;;;;;;;17.00;9.52;;;;;;;3.64;79.96;98602.28;5022367;28;20031;-71
2023/12/08 00:43:44;;;;;;;15.63;9.10;;;;;;;3.61;80.04;98606.81;5011005;28;20029;-71
2023/12/08 00:46:09;;;;;;;14.70;8.88;;;;;;;3.85;80.06;98638.63;5015173;28;20036;-71
2023/12/08 00:48:35;;;;;;;14.57;8.98;;;;;;;3.90;79.34;98638.31;5026889;28;20029;-71
2023/12/08 00:51:00;;;;;;;14.82;8.90;;;;;;;3.85;79.36;98633.50;5026654;28;20103;-71
2023/12/08 00:53:25;;;;;;;14.20;8.93;;;;;;;3.84;79.98;98625.88;5032320;28;20095;-71
2023/12/08 00:55:51;;;;;;;16.42;8.65;;;;;;;3.82;79.73;98625.16;5007159;28;20112;-71
2023/12/08 00:58:16;;;;;;;14.45;8.68;;;;;;;3.55;80.13;98586.66;5028603;28;21522;-71
2023/12/08 01:00:44;;;;;;;14.55;8.95;;;;;;;3.83;80.39;98626.78;5008218;28;20452;-71
2023/12/08 01:03:10;;;;;;;14.30;8.27;;;;;;;3.84;79.31;98613.00;5016757;28;20025;-71
2023/12/08 01:05:35;;;;;;;14.95;8.98;;;;;;;3.72;80.30;98601.78;5026399;28;20018;-71
2023/12/08 01:08:01;;;;;;;14.40;8.25;;;;;;;3.79;80.91;98607.34;5027887;28;20035;-71
2023/12/08 01:10:26;;;;;;;14.23;8.73;;;;;;;3.87;80.85;98605.09;5050007;28;20043;-71
2023/12/08 01:12:52;;;;;;;15.00;8.90;;;;;;;3.88;81.86;98598.19;5021871;28;20034;-71
2023/12/08 01:15:17;;;;;;;13.82;8.55;;;;;;;3.77;81.91;98586.06;5031065;28;20120;-71
2023/12/08 01:17:45;;;;;;;16.67;9.18;;;;;;;3.95;81.20;98602.81;5021312;28;20388;-71
2023/12/08 01:20:10;;;;;;;13.00;8.68;;;;;;;3.99;80.71;98600.88;5024603;28;20040;-69
2023/12/08 01:22:36;;;;;;;13.52;8.52;;;;;;;3.76;80.94;98553.53;5018110;28;20033;-69
2023/12/08 01:25:04;;;;;;;14.85;8.70;;;;;;;3.91;81.68;98605.72;5027056;28;20037;-69
2023/12/08 01:27:29;;;;;;;15.93;10.00;;;;;;;3.88;81.77;98600.78;5012566;28;20021;-69
2023/12/08 01:29:57;;;;;;;16.52;9.75;;;;;;;4.02;81.16;98608.38;5027002;28;20090;-72
2023/12/08 01:32:22;;;;;;;18.70;10.48;;;;;;;3.97;81.60;98611.25;5040536;28;20032;-71
2023/12/08 01:34:48;;;;;;;17.52;10.60;;;;;;;3.94;81.82;98592.63;5026608;28;20063;-71
2023/12/08 01:37:13;;;;;;;19.10;11.07;;;;;;;4.00;81.64;98603.34;5027715;28;20059;-71
2023/12/08 01:39:41;;;;;;;16.67;9.30;;;;;;;3.89;81.21;98620.41;5034231;28;20025;-72
2023/12/08 01:42:06;;;;;;;12.30;8.55;;;;;;;3.86;82.18;98603.44;5041079;28;20037;-71
2023/12/08 01:44:32;;;;;;;14.88;9.10;;;;;;;3.88;82.04;98611.88;5031384;28;20039;-71
2023/12/08 01:46:57;;;;;;;16.40;9.20;;;;;;;3.95;82.51;98610.53;5023681;28;20040;-71
2023/12/08 01:49:27;;;;;;;16.92;10.05;;;;;;;4.02;82.58;98613.53;5032581;28;20056;-71
2023/12/08 01:51:55;;;;;;;14.88;9.73;;;;;;;4.02;83.16;98614.34;5020753;28;20059;-71
2023/12/08 01:54:21;;;;;;;15.02;10.15;;;;;;;4.01;83.07;98597.25;5031574;28;20045;-71
2023/12/08 01:56:46;;;;;;;17.92;10.07;;;;;;;4.09;83.23;98599.31;5030765;28;20107;-71
2023/12/08 01:59:12;;;;;;;15.13;9.93;;;;;;;3.88;83.71;98557.03;5014873;28;20105;-71
2023/12/08 02:01:37;;;;;;;13.60;9.52;;;;;;;4.10;83.58;98579.56;5031558;28;20029;-71
2023/12/08 02:04:03;;;;;;;14.48;8.65;;;;;;;4.19;83.87;98599.53;5007159;28;20384;-71
2023/12/08 02:06:28;;;;;;;13.40;8.20;;;;;;;4.20;84.40;98588.31;5033024;28;20045;-72
2023/12/08 02:08:54;;;;;;;14.82;8.77;;;;;;;4.09;84.40;98588.19;5027040;28;20043;-71
2023/12/08 02:11:19;;;;;;;15.88;8.70;;;;;;;3.99;84.53;98552.78;5018669;28;20410;-70
2023/12/08 02:13:45;;;;;;;12.70;7.75;;;;;;;4.24;85.03;98564.81;5032097;28;20037;-71
2023/12/08 02:16:16;;;;;;;13.52;8.05;;;;;;;4.30;85.15;98566.13;5021601;28;20224;-71
2023/12/08 02:18:41;;;;;;;12.27;7.93;;;;;;;4.29;84.15;98566.25;5034648;28;20044;-71
2023/12/08 02:21:08;;;;;;;11.25;7.30;;;;;;;4.36;83.72;98555.44;5034196;28;20779;-71
2023/12/08 02:23:37;;;;;;;12.57;7.30;;;;;;;4.26;83.85;98527.84;5027997;28;20802;-72
2023/12/08 02:26:04;;;;;;;10.48;6.45;;;;;;;4.58;84.65;98564.22;5034571;28;20041;-71
2023/12/08 02:28:29;;;;;;;11.20;6.78;;;;;;;4.53;84.18;98540.56;5031937;28;20029;-71
2023/12/08 02:30:56;;;;;;;12.32;6.88;;;;;;;4.63;84.79;98544.09;5030817;28;20048;-71
2023/12/08 02:33:28;;;;;;;10.30;6.75;;;;;;;4.40;84.77;98507.94;5015272;28;20032;-71
2023/12/08 02:35:53;;;;;;;10.38;6.53;;;;;;;4.62;84.56;98534.75;5022763;28;20013;-71
2023/12/08 02:38:22;;;;;;;11.15;6.60;;;;;;;4.62;84.84;98532.19;5029595;28;20036;-70
2023/12/08 02:40:50;;;;;;;9.43;5.97;;;;;;;4.68;84.50;98533.50;5016526;28;20033;-71
2023/12/08 02:43:15;;;;;;;11.45;6.60;;;;;;;4.71;84.04;98526.38;5029074;28;20053;-71
2023/12/08 02:45:43;;;;;;;9.65;5.35;;;;;;;4.71;83.81;98523.78;5031272;28;21263;-71
2023/12/08 02:48:11;;;;;;;8.85;5.28;;;;;;;4.70;79.52;98513.59;5029806;28;20593;-71
2023/12/08 02:50:36;;;;;;;9.85;5.32;;;;;;;4.69;78.44;98527.41;5049605;28;20037;-71
2023/12/08 02:53:04;;;;;;;11.73;5.13;;;;;;;4.47;77.60;98476.59;5049293;28;20053;-72
2023/12/08 02:55:30;;;;;;;10.23;5.10;;;;;;;4.23;77.12;98449.09;5030510;28;20031;-71
2023/12/08 02:57:55;;;;;;;9.13;5.35;;;;;;;4.76;77.02;98520.88;5036478;28;20593;-71
2023/12/08 03:00:21;;;;;;;8.57;4.95;;;;;;;4.79;76.13;98524.06;5031654;28;20079;-71
2023/12/08 03:02:48;;;;;;;8.75;5.40;;;;;;;4.82;76.24;98523.84;5019181;28;20121;-71
2023/12/08 03:05:19;;;;;;;8.68;5.20;;;;;;;4.81;76.33;98514.47;5028908;28;20056;-71
2023/12/08 03:07:44;;;;;;;9.05;5.40;;;;;;;4.85;76.22;98516.81;5019427;28;20552;-71
2023/12/08 03:10:10;;;;;;;8.27;4.80;;;;;;;4.87;75.85;98522.69;5009676;28;20037;-71
2023/12/08 03:12:35;;;;;;;8.57;5.13;;;;;;;4.87;75.87;98523.50;5017023;28;20036;-72
2023/12/08 03:15:03;;;;;;;8.65;5.43;;;;;;;4.86;75.85;98527.03;5045736;28;20674;-71
2023/12/08 03:17:29;;;;;;;9.63;4.78;;;;;;;4.77;75.87;98518.19;5019779;28;20056;-71
2023/12/08 03:19:54;;;;;;;8.82;5.53;;;;;;;4.81;75.90;98517.03;5013723;28;20116;-71
2023/12/08 03:22:19;;;;;;;8.07;4.95;;;;;;;4.91;75.03;98518.94;5018515;28;20072;-71
2023/12/08 03:24:46;;;;;;;10.07;5.05;;;;;;;4.92;74.86;98518.03;5032592;28;20527;-72
2023/12/08 03:27:14;;;;;;;10.27;5.35;;;;;;;4.82;74.16;98503.22;5027293;28;20126;-71
2023/12/08 03:29:40;;;;;;;8.65;4.82;;;;;;;4.92;73.48;98500.81;5025052;28;20024;-71
2023/12/08 03:32:06;;;;;;;9.23;5.18;;;;;;;4.97;73.76;98501.28;5045466;28;20036;-71
2023/12/08 03:34:34;;;;;;;8.02;4.75;;;;;;;4.87;73.08;98494.34;5045564;28;20033;-71
2023/12/08 03:37:04;;;;;;;7.78;4.95;;;;;;;4.85;73.44;98491.06;5020794;28;20447;-71
2023/12/08 03:39:30;;;;;;;10.00;4.72;;;;;;;4.68;72.89;98451.88;5033948;28;20422;-70
2023/12/08 03:41:55;;;;;;;8.35;4.70;;;;;;;4.89;72.86;98477.00;5033830;28;20063;-70
2023/12/08 03:44:25;;;;;;;7.57;4.07;;;;;;;4.76;72.74;98457.31;5032742;28;20033;-70
2023/12/08 03:46:50;;;;;;;8.32;4.78;;;;;;;4.64;73.25;98447.91;5035997;28;20043;-70
2023/12/08 03:49:17;;;;;;;8.15;4.45;;;;;;;4.94;71.96;98487.81;5013497;28;20017;-70
2023/12/08 03:51:42;;;;;;;8.23;4.68;;;;;;;4.68;71.80;98433.03;5033536;28;20020;-70
2023/12/08 03:54:08;;;;;;;7.53;4.45;;;;;;;4.94;71.53;98477.50;5025865;28;20053;-70
2023/12/08 03:56:33;;;;;;;7.53;4.40;;;;;;;4.98;70.73;98473.75;5027777;28;20599;-70
2023/12/08 03:58:58;;;;;;;8.63;4.43;;;;;;;4.96;70.40;98475.63;5030588;28;20028;-69
2023/12/08 04:01:25;;;;;;;8.88;4.15;;;;;;;4.91;71.14;98475.97;5011997;28;20539;-71
2023/12/08 04:03:51;;;;;;;8.70;4.40;;;;;;;4.98;69.84;98474.59;5017197;28;20186;-70
2023/12/08 04:06:16;;;;;;;6.65;3.95;;;;;;;4.92;69.85;98480.19;5030393;28;20494;-70
2023/12/08 04:08:46;;;;;;;8.25;4.30;;;;;;;4.95;69.40;98461.13;5034092;28;20455;-70
2023/12/08 04:11:12;;;;;;;7.30;4.28;;;;;;;4.92;69.15;98469.88;5045138;28;20041;-70
2023/12/08 04:13:40;;;;;;;10.75;4.25;;;;;;;4.90;69.79;98471.75;5034961;28;20036;-70
2023/12/08 04:16:06;;;;;;;7.85;4.03;;;;;;;4.97;68.61;98469.56;5026812;28;20034;-70
2023/12/08 04:18:34;;;;;;;7.93;3.97;;;;;;;4.89;68.77;98466.72;5029167;28;20036;-70
2023/12/08 04:21:01;;;;;;;7.32;3.70;;;;;;;4.65;68.65;98420.38;5041089;28;20071;-70
2023/12/08 04:23:29;;;;;;;8.43;4.43;;;;;;;4.91;68.50;98463.09;5043816;28;20029;-70
2023/12/08 04:25:57;;;;;;;7.43;3.88;;;;;;;5.01;68.41;98463.22;5034638;28;20056;-70
2023/12/08 04:28:24;;;;;;;7.95;3.97;;;;;;;4.94;68.69;98455.13;5043508;28;20025;-70
2023/12/08 04:30:50;;;;;;;5.90;3.40;;;;;;;4.84;68.41;98437.88;5034954;28;20090;-70
2023/12/08 04:33:15;;;;;;;7.90;3.85;;;;;;;4.93;68.93;98463.00;5026560;28;20025;-70
2023/12/08 04:35:41;;;;;;;7.90;4.18;;;;;;;4.97;67.94;98465.22;5031582;28;20037;-70
2023/12/08 04:38:06;;;;;;;6.45;3.63;;;;;;;5.05;67.33;98467.22;5013683;28;20575;-70
2023/12/08 04:40:33;;;;;;;7.05;3.88;;;;;;;5.08;66.47;98461.84;5026468;28;20786;-71
2023/12/08 04:42:59;;;;;;;6.72;3.60;;;;;;;5.29;66.23;98464.56;5029213;28;20043;-70
2023/12/08 04:45:25;;;;;;;7.85;3.80;;;;;;;5.24;67.20;98473.59;5032409;28;20124;-70
2023/12/08 04:47:51;;;;;;;6.70;3.47;;;;;;;5.19;67.84;98484.25;5034160;28;20365;-70
2023/12/08 04:50:16;;;;;;;8.80;4.13;;;;;;;5.23;69.60;98477.94;5011328;28;20196;-70
2023/12/08 04:52:44;;;;;;;8.10;4.20;;;;;;;5.20;70.65;98483.31;5032021;28;20021;-70
2023/12/08 04:55:10;;;;;;;8.10;4.20;;;;;;;5.08;71.61;98467.00;5029423;28;20365;-70
2023/12/08 04:57:38;;;;;;;6.97;3.92;;;;;;;5.09;72.02;98480.69;5031296;28;20033;-70
2023/12/08 05:00:05;;;;;;;6.22;3.75;;;;;;;5.05;71.71;98487.84;5046386;28;20554;-70
2023/12/08 05:02:30;;;;;;;9.23;3.85;;;;;;;4.82;71.07;98448.31;5032236;28;20095;-70
2023/12/08 05:04:56;;;;;;;7.55;3.90;;;;;;;5.16;71.22;98494.78;5027536;28;20428;-70
2023/12/08 05:07:21;;;;;;;8.70;4.05;;;;;;;5.17;70.96;98489.53;5046131;28;20464;-70
2023/12/08 05:09:50;;;;;;;7.15;3.65;;;;;;;5.18;70.49;98486.03;5017522;28;20091;-70
2023/12/08 05:12:15;;;;;;;7.83;3.60;;;;;;;5.24;70.68;98497.63;5032033;28;20029;-70
2023/12/08 05:14:40;;;;;;;6.53;3.40;;;;;;;5.08;71.18;98455.88;5035139;28;20039;-70
2023/12/08 05:17:06;;;;;;;7.90;3.83;;;;;;;5.31;71.45;98488.50;5025609;28;20128;-71
2023/12/08 05:19:31;;;;;;;7.10;3.63;;;;;;;5.23;71.86;98490.81;5034227;28;20380;-69
2023/12/08 05:21:56;;;;;;;8.65;4.10;;;;;;;5.09;72.01;98466.09;5007152;28;20021;-71
2023/12/08 05:24:22;;;;;;;8.18;4.03;;;;;;;5.14;72.22;98487.16;5032343;28;20491;-70
2023/12/08 05:26:47;;;;;;;7.72;4.47;;;;;;;5.10;73.43;98487.50;5025582;28;20033;-70
2023/12/08 05:29:13;;;;;;;10.65;4.85;;;;;;;5.09;72.81;98496.16;5031855;28;20029;-70
2023/12/08 05:31:40;;;;;;;8.20;4.95;;;;;;;5.05;73.58;98487.03;5030134;28;20036;-70
2023/12/08 05:34:08;;;;;;;8.77;5.50;;;;;;;4.95;74.09;98485.13;5045363;28;20029;-70
2023/12/08 05:36:38;;;;;;;10.48;5.57;;;;;;;5.06;73.06;98496.41;5030512;28;20503;-70
2023/12/08 05:39:06;;;;;;;9.70;4.97;;;;;;;5.06;73.77;98486.09;5029415;28;20032;-70
2023/12/08 05:41:33;;;;;;;9.80;5.30;;;;;;;4.84;74.89;98443.03;5037977;28;20323;-70
2023/12/08 05:43:59;;;;;;;9.82;5.25;;;;;;;5.10;74.60;98498.63;5012887;28;20033;-70
2023/12/08 05:46:26;;;;;;;8.80;5.35;;;;;;;4.88;74.85;98463.31;5038485;28;20031;-70
2023/12/08 05:48:52;;;;;;;8.93;5.30;;;;;;;5.04;73.95;98481.06;5040824;28;20041;-70
2023/12/08 05:51:17;;;;;;;9.82;5.10;;;;;;;4.59;74.15;98448.22;5021452;28;20184;-70
2023/12/08 05:53:42;;;;;;;8.30;4.97;;;;;;;4.94;73.79;98498.13;5031079;28;20076;-70
2023/12/08 05:56:11;;;;;;;9.27;5.07;;;;;;;5.03;72.70;98496.63;5023127;28;20121;-70
2023/12/08 05:58:36;;;;;;;10.52;5.10;;;;;;;4.85;73.43;98460.94;5016656;28;20528;-70
2023/12/08 06:01:02;;;;;;;8.35;4.90;;;;;;;4.80;73.88;98463.88;5035941;28;20021;-70
2023/12/08 06:03:27;;;;;;;9.32;5.18;;;;;;;4.84;73.90;98472.22;5037107;28;20033;-70
2023/12/08 06:05:55;;;;;;;8.88;5.50;;;;;;;5.12;73.00;98516.56;5027775;28;20048;-70
2023/12/08 06:08:20;;;;;;;9.90;5.60;;;;;;;4.95;72.87;98507.50;5029171;28;20049;-70
2023/12/08 06:10:46;;;;;;;9.60;5.50;;;;;;;4.99;72.66;98493.47;5028475;28;20051;-70
2023/12/08 06:13:13;;;;;;;8.90;5.22;;;;;;;5.02;73.30;98490.66;5021945;28;20032;-70
2023/12/08 06:15:43;;;;;;;10.48;5.65;;;;;;;5.07;73.27;98501.44;5028722;28;20021;-70
2023/12/08 06:18:11;;;;;;;8.75;5.63;;;;;;;4.99;74.36;98496.84;5027567;28;20037;-70
2023/12/08 06:20:39;;;;;;;9.68;5.97;;;;;;;5.11;73.67;98502.03;5017437;28;20116;-70
2023/12/08 06:23:04;;;;;;;10.57;6.32;;;;;;;5.09;73.65;98504.75;5012704;28;20029;-70
2023/12/08 06:25:30;;;;;;;10.07;6.25;;;;;;;4.90;72.65;98460.63;5037398;28;20024;-70
2023/12/08 06:27:55;;;;;;;10.80;6.25;;;;;;;5.09;74.66;98493.59;5012971;28;20510;-70
2023/12/08 06:30:20;;;;;;;9.57;6.00;;;;;;;4.97;74.36;98498.72;5014514;28;20031;-70
2023/12/08 06:32:46;;;;;;;9.13;6.07;;;;;;;4.58;73.92;98453.47;5043505;28;20178;-70
2023/12/08 06:35:14;;;;;;;10.93;6.30;;;;;;;4.76;73.10;98466.78;5037903;28;20549;-69
2023/12/08 06:37:39;;;;;;;9.75;5.38;;;;;;;4.62;72.76;98460.06;5031283;28;20033;-70
2023/12/08 06:40:07;;;;;;;8.68;5.28;;;;;;;5.02;72.81;98513.84;5017406;28;20033;-70
2023/12/08 06:42:33;;;;;;;11.18;5.53;;;;;;;5.08;72.58;98499.69;5029969;28;20033;-71
2023/12/08 06:44:58;;;;;;;9.95;5.82;;;;;;;5.01;73.40;98499.31;5031228;28;20087;-70
2023/12/08 06:47:24;;;;;;;9.57;5.45;;;;;;;5.07;73.21;98498.84;5034936;28;20492;-70
2023/12/08 06:49:49;;;;;;;8.57;5.30;;;;;;;5.09;73.00;98499.59;5043109;28;20029;-70
2023/12/08 06:52:14;;;;;;;11.00;5.07;;;;;;;5.07;72.12;98516.09;5034833;28;20032;-70
2023/12/08 06:54:42;;;;;;;8.10;4.70;;;;;;;4.84;72.05;98481.66;5028114;28;21124;-70
2023/12/08 06:57:08;;;;;;;8.65;4.90;;;;;;;5.15;71.97;98526.66;5029094;28;20099;-70
2023/12/08 06:59:33;;;;;;;8.10;3.30;;;;;;;5.14;74.00;98525.81;5039951;28;20551;-70
2023/12/08 07:01:59;;;;;;;3.88;1.70;;;;;;;4.94;75.96;98537.59;5019383;28;20469;-69
2023/12/08 07:04:24;;;;;;;3.67;1.52;;;;;;;4.54;80.43;98501.78;5013537;28;20029;-72
2023/12/08 07:06:52;;;;;;;3.97;1.52;;;;;;;4.63;84.53;98539.78;5028827;28;20379;-70
2023/12/08 07:09:17;;;;;;;4.10;1.50;;;;;;;4.58;87.47;98547.03;5033268;28;20036;-70
2023/12/08 07:11:42;;;;;;;4.10;1.40;;;;;;;4.10;86.04;98499.78;5018716;28;20023;-71
2023/12/08 07:14:08;;;;;;;3.80;1.50;;;;;;;4.37;87.88;98546.75;5049205;28;20037;-70
2023/12/08 07:16:33;;;;;;;4.03;1.48;;;;;;;4.27;89.55;98555.22;5031523;28;20381;-70
2023/12/08 07:19:01;;;;;;;3.78;1.40;;;;;;;3.99;91.44;98547.66;5036233;28;20073;-71
2023/12/08 07:21:26;;;;;;;4.65;1.50;;;;;;;3.75;94.09;98516.72;5028372;28;20029;-69
2023/12/08 07:23:51;;;;;;;4.97;1.48;;;;;;;3.85;94.78;98540.88;5033466;28;20863;-69
2023/12/08 07:26:18;;;;;;;3.95;1.45;;;;;;;3.79;96.79;98543.03;5033928;28;20029;-72
2023/12/08 07:28:44;;;;;;;4.68;1.67;;;;;;;3.84;97.94;98546.13;5021857;28;20033;-70
2023/12/08 07:31:09;;;;;;;3.22;1.25;;;;;;;3.76;99.92;98531.22;5013990;28;20041;-68
2023/12/08 07:33:37;;;;;;;4.72;1.30;;;;;;;3.81;99.54;98524.00;5046609;28;20392;-69
2023/12/08 07:36:03;;;;;;;3.83;1.55;;;;;;;3.58;99.46;98496.47;5011414;28;20036;-68
2023/12/08 07:38:29;;;;;;;3.97;1.25;;;;;;;3.46;99.62;98498.91;5015491;28;20036;-69
2023/12/08 07:40:54;;;;;;;4.22;1.38;;;;;;;3.45;100.00;98499.03;5034540;28;20025;-70
2023/12/08 07:43:20;;;;;;;4.15;1.45;;;;;;;3.75;100.00;98537.28;5031820;28;20033;-70
2023/12/08 07:45:51;;;;;;;6.18;1.70;;;;;;;3.69;100.00;98535.13;5036462;28;20591;-68
2023/12/08 07:48:18;;;;;;;7.72;1.33;;;;;;;3.72;100.00;98539.22;5029379;28;20029;-68
2023/12/08 07:50:44;;;;;;;5.03;1.25;;;;;;;3.71;100.00;98529.88;5013814;28;20028;-70
2023/12/08 07:53:11;;;;;;;3.80;1.20;;;;;;;3.78;100.00;98526.78;5032983;28;20056;-69
2023/12/08 07:55:39;;;;;;;4.00;1.02;;;;;;;3.66;100.00;98522.47;5025673;28;20040;-70
2023/12/08 07:58:04;;;;;;;3.22;0.98;;;;;;;3.75;100.00;98532.13;5044729;28;20080;-68
2023/12/08 08:00:30;;;;;;;4.25;1.20;;;;;;;3.54;100.00;98495.00;5024320;28;20021;-69
2023/12/08 08:02:56;;;;;;;5.45;1.00;;;;;;;3.81;100.00;98539.44;5027817;28;20884;-68
2023/12/08 08:05:24;;;;;;;5.32;1.17;;;;;;;3.73;100.00;98522.88;5024085;28;20460;-69
2023/12/08 08:07:54;;;;;;;2.47;0.98;;;;;;;3.52;100.00;98484.00;5014876;28;20029;-69
2023/12/08 08:10:21;;;;;;;2.70;0.80;;;;;;;3.78;100.00;98515.69;5015082;28;20409;-70
2023/12/08 08:12:46;;;;;;;5.72;1.20;;;;;;;3.82;100.00;98519.69;5004957;28;20068;-69
2023/12/08 08:15:12;;;;;;;3.03;0.95;;;;;;;3.83;100.00;98536.75;5027305;28;21011;-68
2023/12/08 08:17:37;;;;;;;3.60;1.00;;;;;;;3.77;100.00;98532.03;5002980;28;20511;-69
2023/12/08 08:20:07;;;;;;;2.70;0.90;;;;;;;3.52;100.00;98495.09;5029590;28;20084;-67
2023/12/08 08:22:33;;;;;;;6.90;1.20;;;;;;;3.75;100.00;98527.00;5007635;28;20571;-68
2023/12/08 08:25:01;;;;;;;5.10;1.30;;;;;;;3.70;100.00;98528.22;5031288;28;20103;-69
2023/12/08 08:27:28;;;;;;;4.15;1.83;;;;;;;3.66;100.00;98523.28;5021265;28;20028;-69
2023/12/08 08:29:53;;;;;;;6.82;1.92;;;;;;;3.66;100.00;98525.03;5028379;28;20029;-68
2023/12/08 08:32:19;;;;;;;5.63;1.90;;;;;;;3.60;100.00;98523.72;5008819;28;20029;-69
2023/12/08 08:34:44;;;;;;;5.15;2.00;;;;;;;3.69;100.00;98524.00;5042634;28;20248;-69
2023/12/08 08:37:10;;;;;;;7.53;2.17;;;;;;;3.75;100.00;98513.31;5003031;28;20029;-70
2023/12/08 08:39:35;;;;;;;6.53;3.28;;;;;;;3.66;100.00;98497.56;5023997;28;20073;-69
2023/12/08 08:42:01;;;;;;;5.18;2.53;;;;;;;3.74;100.00;98511.66;5026744;28;20031;-70
2023/12/08 08:44:27;;;;;;;7.70;3.08;;;;;;;3.44;100.00;98479.38;5022082;28;20041;-70
2023/12/08 08:46:55;;;;;;;6.20;2.78;;;;;;;3.74;100.00;98504.78;5022227;28;20025;-71
2023/12/08 08:49:20;;;;;;;6.00;2.40;;;;;;;3.89;100.00;98500.34;5023011;28;20025;-70
2023/12/08 08:51:50;;;;;;;8.05;2.92;;;;;;;3.65;100.00;98477.94;5003215;28;20038;-69
2023/12/08 08:54:16;;;;;;;6.35;2.00;;;;;;;3.94;100.00;98511.16;5019536;28;20117;-69
2023/12/08 08:56:42;;;;;;;8.70;2.60;;;;;;;3.90;100.00;98498.59;5023007;28;20027;-70
2023/12/08 08:59:09;;;;;;;5.95;2.00;;;;;;;3.91;100.00;98495.09;5000898;28;20558;-69
2023/12/08 09:01:35;;;;;;;5.65;2.20;;;;;;;3.86;100.00;98490.25;5015609;28;20083;-69
2023/12/08 09:04:02;;;;;;;5.70;2.15;;;;;;;3.63;100.00;98461.81;5023831;28;20556;-70
2023/12/08 09:06:28;;;;;;;4.20;1.80;;;;;;;4.03;100.00;98492.50;5033912;28;20029;-69
2023/12/08 09:08:54;;;;;;;5.45;2.20;;;;;;;3.94;100.00;98480.28;5024395;28;20068;-70
2023/12/08 09:11:19;;;;;;;6.13;2.08;;;;;;;4.17;100.00;98508.72;5017792;28;20035;-69
2023/12/08 09:13:45;;;;;;;10.27;2.38;;;;;;;3.91;100.00;98472.75;5023784;28;20036;-69
2023/12/08 09:16:13;;;;;;;4.43;1.90;;;;;;;3.94;100.00;98479.44;5002246;28;20036;-70
2023/12/08 09:18:41;;;;;;;4.35;2.00;;;;;;;4.21;100.00;98513.53;5007210;28;20036;-69
2023/12/08 09:21:09;;;;;;;4.93;2.13;;;;;;;4.31;100.00;98512.91;5024095;28;20066;-69
2023/12/08 09:23:34;;;;;;;5.25;1.90;;;;;;;4.26;100.00;98507.28;5021532;28;20044;-70
2023/12/08 09:26:02;;;;;;;5.15;1.92;;;;;;;4.34;100.00;98508.34;5025858;28;20056;-70
2023/12/08 09:28:30;;;;;;;4.65;1.90;;;;;;;4.45;100.00;98502.44;5017476;28;20043;-70
2023/12/08 09:30:55;;;;;;;4.55;1.90;;;;;;;4.22;100.00;98457.75;5025677;28;20036;-69
2023/12/08 09:33:23;;;;;;;5.63;2.60;;;;;;;4.48;100.00;98501.44;5017406;28;20040;-70
2023/12/08 09:35:48;;;;;;;6.25;2.10;;;;;;;4.48;100.00;98496.28;5027088;28;20110;-70
2023/12/08 09:38:14;;;;;;;6.65;2.08;;;;;;;4.53;100.00;98491.63;5037379;28;20044;-70
2023/12/08 09:40:41;;;;;;;4.22;1.80;;;;;;;4.52;100.00;98495.94;5022944;28;20017;-70
2023/12/08 09:43:13;;;;;;;5.80;1.98;;;;;;;4.43;100.00;98494.00;5039762;28;20033;-71
2023/12/08 09:45:42;;;;;;;5.43;1.83;;;;;;;4.37;100.00;98479.81;5020400;28;20037;-71
2023/12/08 09:48:12;;;;;;;10.27;2.40;;;;;;;4.39;100.00;98487.44;5004558;28;20086;-70
2023/12/08 09:50:41;;;;;;;7.78;1.98;;;;;;;4.40;100.00;98478.81;5025148;28;20033;-70
2023/12/08 09:53:09;;;;;;;9.02;2.30;;;;;;;4.40;100.00;98486.53;5020764;28;20929;-70
2023/12/08 09:55:37;;;;;;;4.95;1.95;;;;;;;4.54;100.00;98475.22;5007798;28;20028;-70
2023/12/08 09:58:04;;;;;;;6.10;1.92;;;;;;;4.26;100.00;98440.34;5028544;28;20036;-70
2023/12/08 10:00:30;;;;;;;5.60;2.33;;;;;;;4.32;100.00;98481.09;5002144;28;20049;-70
2023/12/08 10:02:56;;;;;;;4.47;2.05;;;;;;;4.19;100.00;98468.25;5025413;28;20041;-70
2023/12/08 10:05:21;;;;;;;5.93;2.45;;;;;;;4.42;100.00;98458.91;5022426;28;20029;-69
2023/12/08 10:07:49;;;;;;;5.40;2.25;;;;;;;4.53;100.00;98458.16;5024703;28;20041;-72
2023/12/08 10:10:14;;;;;;;4.68;1.92;;;;;;;4.37;100.00;98464.38;5038617;28;20214;-70
2023/12/08 10:12:43;;;;;;;4.45;1.67;;;;;;;4.26;100.00;98458.38;5026487;28;20046;-71
2023/12/08 10:15:09;;;;;;;6.97;2.30;;;;;;;4.12;100.00;98461.91;5018803;28;20033;-71
2023/12/08 10:17:48;;;;;;;5.20;1.73;;;;;;;4.17;100.00;98462.41;5040774;28;20037;-71
2023/12/08 10:20:14;;;;;;;4.90;2.13;;;;;;;4.16;100.00;98453.88;5025932;28;20021;-70
2023/12/08 10:22:57;;;;;;;4.93;2.35;;;;;;;4.09;100.00;98415.78;5023092;28;20037;-72
2023/12/08 10:25:25;;;;;;;6.72;2.40;;;;;;;4.30;100.00;98449.50;5024089;28;20136;-73
2023/12/08 10:27:53;;;;;;;4.80;2.17;;;;;;;4.26;100.00;98432.63;5023140;28;20025;-70
2023/12/08 10:30:25;;;;;;;4.82;2.15;;;;;;;4.13;100.00;98399.22;5023160;28;20601;-72
2023/12/08 10:32:50;;;;;;;5.47;2.50;;;;;;;4.55;100.00;98448.56;5007268;28;20037;-71
2023/12/08 10:35:16;;;;;;;6.03;3.20;;;;;;;4.49;100.00;98443.84;5024153;28;20103;-71
2023/12/08 10:37:42;;;;;;;4.50;2.00;;;;;;;4.42;100.00;98446.88;5029060;28;20045;-71
2023/12/08 10:40:10;;;;;;;5.15;1.88;;;;;;;4.28;100.00;98425.63;5025582;28;20024;-71
2023/12/08 10:42:36;;;;;;;5.43;1.80;;;;;;;4.11;100.00;98393.38;5006451;28;20271;-72
2023/12/08 10:45:02;;;;;;;4.47;1.90;;;;;;;4.36;100.00;98420.72;5026836;28;20025;-70
2023/12/08 10:47:30;;;;;;;4.93;1.90;;;;;;;4.29;100.00;98417.78;5028196;28;20534;-71
2023/12/08 10:49:58;;;;;;;4.68;1.80;;;;;;;4.26;100.00;98415.44;5018140;28;20028;-70
2023/12/08 10:52:26;;;;;;;4.60;2.08;;;;;;;4.26;100.00;98405.13;5009755;28;20043;-71
2023/12/08 10:54:51;;;;;;;4.32;2.00;;;;;;;4.27;100.00;98387.94;5026863;28;20040;-71
2023/12/08 10:57:17;;;;;;;4.15;1.70;;;;;;;4.15;100.00;98366.47;5003257;28;20025;-69
2023/12/08 10:59:45;;;;;;;5.35;2.10;;;;;;;4.16;100.00;98365.53;5026966;28;20036;-70
2023/12/08 11:02:20;;;;;;;4.78;1.70;;;;;;;4.29;100.00;98410.06;5006822;28;20029;-71
2023/12/08 11:04:53;;;;;;;4.20;1.83;;;;;;;4.04;100.00;98352.63;5041418;28;20574;-71
2023/12/08 11:07:24;;;;;;;5.28;2.10;;;;;;;4.34;100.00;98389.13;5029226;28;20043;-70
2023/12/08 11:09:55;;;;;;;4.40;1.70;;;;;;;4.43;100.00;98379.00;5006413;28;20033;-71
2023/12/08 11:12:22;;;;;;;4.50;1.52;;;;;;;4.42;100.00;98389.41;5025020;28;20033;-72
2023/12/08 11:14:56;;;;;;;4.80;1.75;;;;;;;4.35;100.00;98380.47;5020119;28;20166;-70
2023/12/08 11:17:55;;;;;;;5.15;1.60;;;;;;;4.38;100.00;98360.50;5038896;28;20024;-71
2023/12/08 11:20:21;;;;;;;;;;;;;;;4.48;100.00;98378.66;5025729;28;20045;-70
2023/12/08 11:22:47;;;;;;;4.30;1.70;;;;;;;4.54;100.00;98380.78;5026821;28;19921;-73
2023/12/08 11:25:19;;;;;;;5.07;2.65;;;;;;;4.69;100.00;98375.44;5027431;28;21484;-70
2023/12/08 11:27:44;;;;;;;7.78;3.55;;;;;;;4.75;100.00;98373.22;5028027;28;20048;-69
2023/12/08 11:30:23;;;;;;;7.45;4.38;;;;;;;4.62;100.00;98333.88;5025505;28;20097;-70
2023/12/08 11:32:55;;;;;;;5.13;2.40;;;;;;;4.84;100.00;98356.28;5026315;28;20102;-72
2023/12/08 11:35:23;;;;;;;4.63;2.03;;;;;;;4.77;100.00;98342.22;5038553;28;20037;-70